Time;durP1;ratioP1;P1;durP2;ratioP2;P2;SDS_P1;SDS_P2;PMS_P1;PMS_P2;Temp;Humidity;BMP_temperature;BMP_pressure;BME280_temperature;BME280_humidity;BME280_pressure;Samples;Min_cycle;Max_cycle;Signal;HPM_P1;HPM_P2
2022/02/15 00:02:21;;;;;;;24.33;21.60;;;8.30;99.90;;;;;;4955568;29;20498;-86
2022/02/15 00:04:47;;;;;;;25.13;20.73;;;8.40;99.90;;;;;;4957255;28;20512;-86
2022/02/15 00:07:12;;;;;;;27.30;22.17;;;8.50;99.90;;;;;;4956623;28;20037;-85
2022/02/15 00:09:38;;;;;;;31.48;26.45;;;8.50;99.90;;;;;;4956034;28;20110;-86
2022/02/15 00:12:05;;;;;;;23.83;20.65;;;8.60;99.90;;;;;;4956149;28;20118;-86
2022/02/15 00:14:31;;;;;;;32.10;24.40;;;8.50;99.90;;;;;;4955727;28;20019;-86
2022/02/15 00:16:56;;;;;;;29.70;24.92;;;8.50;99.90;;;;;;4955729;28;20031;-86
2022/02/15 00:19:22;;;;;;;25.88;21.65;;;8.60;99.90;;;;;;4955775;28;20500;-86
2022/02/15 00:21:48;;;;;;;21.75;16.88;;;8.50;99.90;;;;;;4956494;28;20412;-86
2022/02/15 00:24:13;;;;;;;28.58;20.10;;;8.40;99.90;;;;;;4956467;28;20031;-86
2022/02/15 00:26:39;;;;;;;13.45;10.48;;;8.30;99.90;;;;;;4955808;28;20035;-86
2022/02/15 00:29:05;;;;;;;9.18;8.27;;;8.10;99.90;;;;;;4955360;29;20101;-86
2022/02/15 00:31:30;;;;;;;7.72;6.95;;;8.10;99.90;;;;;;4955996;28;20098;-86
2022/02/15 00:33:56;;;;;;;16.90;13.52;;;8.20;99.90;;;;;;4940605;29;20034;-86
2022/02/15 00:36:22;;;;;;;22.33;17.23;;;8.10;99.90;;;;;;4956044;28;20562;-86
2022/02/15 00:38:47;;;;;;;20.35;17.08;;;8.40;99.90;;;;;;4955936;28;20035;-86
2022/02/15 00:41:13;;;;;;;22.50;18.40;;;8.30;99.90;;;;;;4954829;29;20019;-86
2022/02/15 00:43:39;;;;;;;11.68;8.43;;;8.40;99.90;;;;;;4955556;28;20081;-86
2022/02/15 00:46:05;;;;;;;19.48;14.32;;;8.20;99.90;;;;;;4955534;28;20040;-86
2022/02/15 00:48:31;;;;;;;10.20;7.43;;;8.40;99.90;;;;;;4955368;28;20066;-86
2022/02/15 00:50:56;;;;;;;10.07;8.00;;;8.30;99.90;;;;;;4955775;28;20507;-86
2022/02/15 00:53:22;;;;;;;10.35;7.97;;;8.20;99.90;;;;;;4955026;28;20411;-85
2022/02/15 00:55:48;;;;;;;10.00;7.30;;;8.20;99.90;;;;;;4955458;28;20031;-86
2022/02/15 00:58:13;;;;;;;9.55;8.07;;;8.10;99.90;;;;;;4955216;28;20031;-86
2022/02/15 01:00:39;;;;;;;10.70;8.60;;;8.20;99.90;;;;;;4955253;28;20039;-86
2022/02/15 01:03:05;;;;;;;12.48;9.60;;;8.50;99.90;;;;;;4955299;28;20019;-86
2022/02/15 01:05:30;;;;;;;10.85;9.32;;;8.40;99.90;;;;;;4954643;28;20035;-86
2022/02/15 01:07:56;;;;;;;10.27;9.27;;;8.50;99.90;;;;;;4954860;28;20415;-86
2022/02/15 01:10:22;;;;;;;10.50;9.30;;;8.30;99.90;;;;;;4955281;28;20024;-86
2022/02/15 01:12:49;;;;;;;12.02;9.98;;;8.10;99.90;;;;;;4954921;28;20131;-86
2022/02/15 01:15:16;;;;;;;11.77;9.85;;;8.10;99.90;;;;;;4940278;29;20029;-86
2022/02/15 01:17:44;;;;;;;8.85;7.60;;;8.20;99.90;;;;;;4954748;28;20031;-86
2022/02/15 01:20:10;;;;;;;9.57;8.00;;;8.20;99.90;;;;;;4954517;29;20059;-86
2022/02/15 01:22:36;;;;;;;11.27;9.10;;;8.30;99.90;;;;;;4955193;28;20090;-86
2022/02/15 01:25:02;;;;;;;12.48;9.45;;;8.30;99.90;;;;;;4954774;28;20472;-86
2022/02/15 01:27:28;;;;;;;10.38;9.30;;;8.30;99.90;;;;;;4954787;28;20034;-86
2022/02/15 01:29:54;;;;;;;12.10;9.73;;;8.60;99.90;;;;;;4954932;28;20023;-86
2022/02/15 01:32:20;;;;;;;10.40;8.88;;;8.40;99.90;;;;;;4954162;29;20098;-85
2022/02/15 01:34:45;;;;;;;11.40;8.63;;;8.40;99.90;;;;;;4954649;28;20520;-86
2022/02/15 01:37:11;;;;;;;7.82;6.43;;;8.40;99.90;;;;;;4954778;28;20027;-86
2022/02/15 01:39:37;;;;;;;7.53;6.68;;;8.40;99.90;;;;;;4955297;28;20464;-86
2022/02/15 01:42:03;;;;;;;6.38;5.22;;;8.30;99.90;;;;;;4954654;28;20031;-86
2022/02/15 01:44:30;;;;;;;7.75;6.22;;;8.30;99.90;;;;;;4954238;28;20031;-86
2022/02/15 01:46:56;;;;;;;11.25;10.00;;;8.30;99.90;;;;;;4953774;28;20555;-86
2022/02/15 01:49:22;;;;;;;13.63;11.63;;;8.20;99.90;;;;;;4954560;28;20046;-86
2022/02/15 01:51:48;;;;;;;15.68;13.25;;;8.30;99.90;;;;;;4954469;28;20486;-86
2022/02/15 01:54:14;;;;;;;15.57;13.50;;;8.30;99.90;;;;;;4954367;28;20035;-86
2022/02/15 01:56:40;;;;;;;12.60;11.35;;;8.20;99.90;;;;;;4954247;28;20031;-86
2022/02/15 01:59:06;;;;;;;20.35;16.17;;;8.30;99.90;;;;;;4954064;28;20399;-86
2022/02/15 02:01:31;;;;;;;20.17;15.38;;;8.30;99.90;;;;;;4955552;28;20087;-86
2022/02/15 02:03:57;;;;;;;18.23;15.75;;;8.20;99.90;;;;;;4954230;28;20039;-86
2022/02/15 02:06:23;;;;;;;17.88;15.13;;;8.20;99.90;;;;;;4954239;28;20031;-85
2022/02/15 02:08:48;;;;;;;17.67;14.63;;;8.30;99.90;;;;;;4955187;28;20034;-86
2022/02/15 02:11:14;;;;;;;18.25;15.85;;;8.40;99.90;;;;;;4953394;29;20123;-86
2022/02/15 02:13:40;;;;;;;17.98;14.13;;;8.20;99.90;;;;;;4954377;28;20103;-86
2022/02/15 02:16:05;;;;;;;15.50;13.80;;;8.00;99.90;;;;;;4954293;28;20491;-86
2022/02/15 02:18:31;;;;;;;15.55;13.93;;;8.00;99.90;;;;;;4954427;28;20031;-85
2022/02/15 02:21:02;;;;;;;15.25;13.60;;;8.10;99.90;;;;;;4954750;28;20043;-86
2022/02/15 02:23:28;;;;;;;16.67;13.07;;;8.20;99.90;;;;;;4953345;28;20407;-86
2022/02/15 02:25:53;;;;;;;15.80;13.77;;;8.20;99.90;;;;;;4954783;28;20039;-86
2022/02/15 02:28:20;;;;;;;17.27;14.50;;;8.20;99.90;;;;;;4954566;28;20529;-86
2022/02/15 02:30:46;;;;;;;16.00;14.07;;;8.20;99.90;;;;;;4953742;28;20039;-85
2022/02/15 02:33:11;;;;;;;15.10;13.50;;;8.10;99.90;;;;;;4954113;28;20047;-85
2022/02/15 02:35:37;;;;;;;17.40;14.40;;;8.10;99.90;;;;;;4954675;28;20388;-86
2022/02/15 02:38:03;;;;;;;15.23;13.68;;;8.00;99.90;;;;;;4953724;29;20492;-86
2022/02/15 02:40:29;;;;;;;17.35;14.63;;;7.90;99.90;;;;;;4954072;28;20043;-86
2022/02/15 02:42:54;;;;;;;16.35;14.25;;;7.90;99.90;;;;;;4939315;29;20031;-84
2022/02/15 02:45:22;;;;;;;17.15;14.05;;;7.80;99.90;;;;;;4954223;28;20019;-86
2022/02/15 02:47:50;;;;;;;16.27;13.40;;;7.80;99.90;;;;;;4954311;28;20118;-86
2022/02/15 02:50:18;;;;;;;16.80;14.00;;;8.00;99.90;;;;;;4953239;28;20503;-86
2022/02/15 02:52:44;;;;;;;14.77;13.10;;;7.80;99.90;;;;;;4954114;28;20040;-86
2022/02/15 02:55:10;;;;;;;14.55;12.45;;;7.80;99.90;;;;;;4953925;28;20031;-86
2022/02/15 02:57:37;;;;;;;13.63;12.23;;;7.80;99.90;;;;;;4953469;28;20392;-86
2022/02/15 03:00:10;;;;;;;12.75;11.15;;;7.70;99.90;;;;;;4953909;28;20483;-86
2022/02/15 03:02:36;;;;;;;10.73;9.63;;;7.70;99.90;;;;;;4954279;28;20478;-86
2022/02/15 03:05:02;;;;;;;12.20;10.00;;;7.60;99.90;;;;;;4951117;29;20027;-86
2022/02/15 03:07:27;;;;;;;10.65;8.75;;;7.70;99.90;;;;;;4956752;28;20027;-86
2022/02/15 03:09:53;;;;;;;11.82;8.75;;;7.80;99.90;;;;;;4957516;28;20038;-86
2022/02/15 03:12:18;;;;;;;11.23;8.15;;;7.90;99.90;;;;;;4957111;28;20043;-85
2022/02/15 03:14:44;;;;;;;9.10;7.70;;;7.70;99.90;;;;;;4957622;28;20046;-85
2022/02/15 03:17:11;;;;;;;8.98;7.65;;;7.50;99.90;;;;;;4956525;29;20448;-86
2022/02/15 03:19:37;;;;;;;8.30;6.70;;;7.50;99.90;;;;;;4957456;28;20075;-85
2022/02/15 03:22:02;;;;;;;8.18;6.03;;;7.30;99.90;;;;;;4957052;28;20158;-86
2022/02/15 03:24:28;;;;;;;6.30;5.65;;;7.30;99.90;;;;;;4957844;28;20034;-86
2022/02/15 03:26:54;;;;;;;7.95;5.72;;;7.70;99.90;;;;;;4956719;28;20026;-86
2022/02/15 03:29:19;;;;;;;8.00;5.28;;;7.50;99.90;;;;;;4956295;29;20030;-85
2022/02/15 03:31:45;;;;;;;8.77;5.45;;;7.50;99.90;;;;;;4957211;28;20484;-86
2022/02/15 03:34:11;;;;;;;7.85;5.25;;;7.60;99.90;;;;;;4956706;28;20059;-86
2022/02/15 03:36:37;;;;;;;7.75;5.60;;;7.50;99.90;;;;;;4956674;28;20019;-85
2022/02/15 03:39:05;;;;;;;9.90;6.47;;;7.50;99.90;;;;;;4956983;28;20039;-86
2022/02/15 03:44:18;;;;;;;6.40;5.18;;;7.40;99.90;;;;;;4956371;29;20114;-85
2022/02/15 03:46:43;;;;;;;5.07;4.43;;;7.30;99.90;;;;;;4958049;28;20110;-86
2022/02/15 03:49:11;;;;;;;5.10;4.05;;;7.30;99.90;;;;;;4956749;28;20134;-86
2022/02/15 03:51:40;;;;;;;5.03;4.20;;;7.30;99.90;;;;;;4956196;28;20526;-86
2022/02/15 03:54:07;;;;;;;7.03;3.88;;;7.30;99.90;;;;;;4956996;28;20035;-86
2022/02/15 03:56:33;;;;;;;8.32;3.95;;;7.30;99.90;;;;;;4956357;28;20023;-86
2022/02/15 03:59:01;;;;;;;6.40;3.85;;;7.40;99.90;;;;;;4955738;28;20383;-85
2022/02/15 04:01:27;;;;;;;6.97;4.28;;;7.10;99.90;;;;;;4957660;28;20477;-86
2022/02/15 04:03:53;;;;;;;6.60;5.30;;;7.20;99.90;;;;;;4956151;28;20054;-86
2022/02/15 04:06:18;;;;;;;5.43;4.57;;;7.20;99.90;;;;;;4957130;28;20066;-86
2022/02/15 04:08:44;;;;;;;6.03;5.03;;;7.50;99.90;;;;;;4956244;28;20031;-85
2022/02/15 04:11:10;;;;;;;5.65;4.75;;;7.20;99.90;;;;;;4954774;29;20042;-86
2022/02/15 04:13:35;;;;;;;8.48;5.60;;;7.30;99.90;;;;;;4957995;28;20126;-86
2022/02/15 04:16:02;;;;;;;9.13;6.43;;;7.20;99.90;;;;;;4956367;28;20042;-85
2022/02/15 04:18:28;;;;;;;5.95;5.28;;;7.20;99.90;;;;;;4955455;28;20071;-85
2022/02/15 04:20:54;;;;;;;7.43;4.72;;;7.20;99.90;;;;;;4956230;28;20078;-84
2022/02/15 04:23:19;;;;;;;5.68;3.35;;;7.70;99.90;;;;;;4955342;29;20389;-85
2022/02/15 04:25:45;;;;;;;4.13;3.00;;;7.50;99.90;;;;;;4955829;28;20028;-85
2022/02/15 04:28:11;;;;;;;5.15;2.80;;;7.80;99.90;;;;;;4955872;28;20519;-85
2022/02/15 04:30:36;;;;;;;4.22;3.25;;;7.50;99.90;;;;;;4955957;28;20059;-86
2022/02/15 04:33:03;;;;;;;3.40;2.90;;;7.60;99.90;;;;;;4955873;28;20118;-85
2022/02/15 04:35:28;;;;;;;4.05;3.10;;;7.60;99.90;;;;;;4955229;28;20031;-85
2022/02/15 04:37:54;;;;;;;3.88;3.13;;;7.90;99.90;;;;;;4956383;28;20035;-85
2022/02/15 04:40:20;;;;;;;4.80;3.40;;;7.60;99.90;;;;;;4955579;28;20028;-86
2022/02/15 04:42:46;;;;;;;4.65;3.83;;;7.60;99.90;;;;;;4955962;28;20100;-85
2022/02/15 04:45:12;;;;;;;4.25;2.80;;;7.80;99.90;;;;;;4955870;28;20023;-86
2022/02/15 04:47:39;;;;;;;5.72;2.90;;;8.00;99.90;;;;;;4955564;28;20027;-85
2022/02/15 04:50:05;;;;;;;4.47;3.30;;;7.90;99.90;;;;;;4954695;29;20067;-86
2022/02/15 04:52:31;;;;;;;6.63;3.47;;;7.70;99.90;;;;;;4955557;28;20039;-85
2022/02/15 04:54:57;;;;;;;6.00;3.42;;;7.70;99.90;;;;;;4955022;28;20042;-85
2022/02/15 04:57:23;;;;;;;5.65;4.15;;;7.60;99.90;;;;;;4955853;28;20027;-85
2022/02/15 04:59:48;;;;;;;6.85;5.88;;;7.60;99.90;;;;;;4955200;28;20027;-85
2022/02/15 05:02:14;;;;;;;8.93;5.93;;;7.90;99.90;;;;;;4954894;29;20031;-85
2022/02/15 05:04:48;;;;;;;5.80;4.82;;;7.70;99.90;;;;;;4955012;28;20042;-85
2022/02/15 05:07:18;;;;;;;6.15;5.40;;;7.70;99.90;;;;;;4955163;28;20075;-85
2022/02/15 05:09:44;;;;;;;6.60;5.60;;;7.80;99.90;;;;;;4955280;28;20023;-86
2022/02/15 05:12:10;;;;;;;9.15;6.85;;;7.60;99.90;;;;;;4955146;28;20527;-85
2022/02/15 05:14:36;;;;;;;10.05;7.95;;;7.70;99.90;;;;;;4955146;28;20106;-85
2022/02/15 05:17:02;;;;;;;10.45;7.88;;;7.60;99.90;;;;;;4952034;29;20107;-85
2022/02/15 05:19:28;;;;;;;11.30;7.72;;;7.60;99.90;;;;;;4955296;28;20432;-86
2022/02/15 05:21:53;;;;;;;8.55;6.80;;;7.90;99.90;;;;;;4954844;28;20126;-85
2022/02/15 05:24:19;;;;;;;6.60;5.53;;;7.90;99.90;;;;;;4954696;28;20035;-85
2022/02/15 05:26:45;;;;;;;6.88;5.57;;;8.00;99.90;;;;;;4937872;28;20508;-85
2022/02/15 05:29:11;;;;;;;5.93;5.30;;;8.00;99.90;;;;;;4954847;28;20472;-85
2022/02/15 05:31:36;;;;;;;7.85;4.93;;;7.80;99.90;;;;;;4961524;28;20051;-85
2022/02/15 05:34:02;;;;;;;6.53;5.00;;;7.70;99.90;;;;;;4954895;28;20412;-86
2022/02/15 05:36:27;;;;;;;6.13;5.00;;;7.90;99.90;;;;;;4955483;28;20070;-86
2022/02/15 05:38:53;;;;;;;8.25;6.05;;;7.60;99.90;;;;;;4954378;28;20030;-85
2022/02/15 05:41:19;;;;;;;8.90;6.40;;;7.50;99.90;;;;;;4953682;29;20031;-85
2022/02/15 05:43:44;;;;;;;8.68;6.88;;;7.50;99.90;;;;;;4955081;28;20032;-86
2022/02/15 05:46:10;;;;;;;8.35;6.78;;;7.50;99.90;;;;;;4954581;28;20130;-86
2022/02/15 05:48:36;;;;;;;8.25;6.32;;;7.50;99.90;;;;;;4954870;28;20075;-84
2022/02/15 05:51:01;;;;;;;7.63;6.82;;;7.80;99.90;;;;;;4955037;28;20479;-86
2022/02/15 05:53:29;;;;;;;7.55;6.25;;;7.70;99.90;;;;;;4953429;28;20035;-85
2022/02/15 05:55:58;;;;;;;9.77;7.30;;;7.70;99.90;;;;;;4954932;28;20031;-85
2022/02/15 05:58:28;;;;;;;9.23;6.70;;;7.60;99.90;;;;;;4955737;28;20035;-86
2022/02/15 06:00:54;;;;;;;8.73;6.70;;;7.60;99.90;;;;;;4955222;28;20031;-86
2022/02/15 06:06:04;;;;;;;7.72;6.15;;;7.60;99.90;;;;;;4940342;28;20075;-86
2022/02/15 06:08:29;;;;;;;11.35;6.93;;;7.70;99.90;;;;;;4936871;28;20035;-85
2022/02/15 06:10:55;;;;;;;10.27;7.43;;;7.50;99.90;;;;;;4954608;28;20023;-85
2022/02/15 06:13:21;;;;;;;8.20;6.00;;;7.80;99.90;;;;;;4954226;28;20044;-85
2022/02/15 06:15:46;;;;;;;7.55;6.18;;;7.80;99.90;;;;;;4954214;28;20027;-85
2022/02/15 06:18:12;;;;;;;7.93;6.10;;;7.70;99.90;;;;;;4954697;28;20031;-85
2022/02/15 06:20:39;;;;;;;7.68;6.25;;;7.70;99.90;;;;;;4953864;28;20097;-86
2022/02/15 06:23:05;;;;;;;8.95;5.90;;;8.00;99.90;;;;;;4953545;29;20058;-85
2022/02/15 06:25:31;;;;;;;8.27;6.10;;;7.90;99.90;;;;;;4954507;28;20125;-86
2022/02/15 06:27:57;;;;;;;8.63;5.50;;;7.70;99.90;;;;;;4954266;28;20023;-85
2022/02/15 06:30:23;;;;;;;5.78;4.85;;;8.00;99.90;;;;;;4954132;28;20028;-85
2022/02/15 06:32:48;;;;;;;8.70;5.53;;;7.90;99.90;;;;;;4954259;28;20047;-84
2022/02/15 06:35:14;;;;;;;6.78;5.53;;;7.60;99.90;;;;;;4953092;29;20031;-86
2022/02/15 06:37:48;;;;;;;6.13;4.57;;;7.90;99.90;;;;;;4956171;28;20508;-85
2022/02/15 06:40:15;;;;;;;6.22;3.90;;;7.80;99.90;;;;;;4956531;28;20159;-85
2022/02/15 06:42:41;;;;;;;5.85;3.95;;;7.60;99.90;;;;;;4957336;28;20038;-86
2022/02/15 06:45:08;;;;;;;7.53;4.18;;;7.60;99.90;;;;;;4957887;28;20036;-85
2022/02/15 06:47:34;;;;;;;7.50;4.40;;;7.60;99.90;;;;;;4957431;28;20158;-85
2022/02/15 06:50:01;;;;;;;6.50;4.63;;;7.90;99.90;;;;;;4957356;28;20114;-85
2022/02/15 06:52:27;;;;;;;7.38;5.97;;;7.70;99.90;;;;;;4943050;29;20452;-85
2022/02/15 06:54:53;;;;;;;7.10;5.97;;;8.00;99.90;;;;;;4957629;28;20026;-85
2022/02/15 06:57:19;;;;;;;7.90;6.32;;;8.00;99.90;;;;;;4957093;28;20033;-86
2022/02/15 06:59:45;;;;;;;11.00;6.80;;;8.00;99.90;;;;;;4957176;28;20034;-86
2022/02/15 07:02:11;;;;;;;9.30;7.57;;;7.80;99.90;;;;;;4947594;29;20039;-87
2022/02/15 07:04:36;;;;;;;9.68;7.63;;;7.80;99.90;;;;;;4939412;29;20051;-85
2022/02/15 07:07:03;;;;;;;11.23;7.13;;;7.80;99.90;;;;;;4939019;29;20055;-88
2022/02/15 07:09:28;;;;;;;7.32;6.20;;;7.80;99.90;;;;;;4944727;29;20034;-87
2022/02/15 07:11:54;;;;;;;14.35;8.88;;;7.70;99.90;;;;;;4954502;29;20482;-85
2022/02/15 07:14:20;;;;;;;11.57;8.13;;;7.80;99.90;;;;;;4957208;29;20090;-87
2022/02/15 07:16:46;;;;;;;7.90;4.63;;;7.90;99.90;;;;;;4954536;29;20039;-87
2022/02/15 07:19:12;;;;;;;7.38;4.40;;;7.60;99.90;;;;;;4953929;29;20399;-86
2022/02/15 07:21:38;;;;;;;4.90;4.40;;;7.60;99.90;;;;;;4953999;29;20031;-84
2022/02/15 07:24:04;;;;;;;8.15;4.65;;;8.00;99.90;;;;;;4954793;29;20035;-84
2022/02/15 07:26:30;;;;;;;7.57;5.38;;;7.70;99.90;;;;;;4955139;29;20027;-83
2022/02/15 07:28:56;;;;;;;6.70;3.88;;;8.00;99.90;;;;;;4954886;29;20480;-84
2022/02/15 07:31:22;;;;;;;5.93;4.40;;;7.80;99.90;;;;;;4953944;29;20063;-87
2022/02/15 07:33:48;;;;;;;6.40;4.25;;;7.70;99.90;;;;;;4953236;29;20065;-87
2022/02/15 07:36:14;;;;;;;5.00;4.00;;;7.90;99.90;;;;;;4937586;29;20041;-87
2022/02/15 07:38:40;;;;;;;5.40;3.95;;;7.70;99.90;;;;;;4954432;29;20038;-87
2022/02/15 07:41:06;;;;;;;12.05;4.25;;;7.90;99.90;;;;;;4936786;29;20400;-88
2022/02/15 07:43:32;;;;;;;4.68;3.90;;;8.00;99.90;;;;;;4954387;29;20031;-87
2022/02/15 07:45:58;;;;;;;5.32;4.28;;;7.60;99.90;;;;;;4953811;29;20039;-87
2022/02/15 07:48:23;;;;;;;14.40;8.02;;;7.80;99.90;;;;;;4953308;29;20031;-87
2022/02/15 07:50:49;;;;;;;20.65;13.98;;;7.50;99.90;;;;;;4957567;28;20121;-86
2022/02/15 07:53:15;;;;;;;10.50;6.90;;;7.50;99.90;;;;;;4955041;28;20404;-86
2022/02/15 07:55:41;;;;;;;13.77;10.32;;;7.60;99.90;;;;;;4943082;29;20031;-87
2022/02/15 07:58:07;;;;;;;9.95;6.65;;;7.80;99.90;;;;;;4956168;28;20035;-87
2022/02/15 08:00:33;;;;;;;8.27;5.32;;;7.90;99.90;;;;;;4956811;28;20027;-87
2022/02/15 08:02:59;;;;;;;7.30;4.50;;;7.80;99.90;;;;;;4956227;28;20385;-87
2022/02/15 08:05:25;;;;;;;7.75;4.28;;;7.70;99.90;;;;;;4955899;28;20036;-87
2022/02/15 08:07:54;;;;;;;6.63;4.28;;;8.00;99.90;;;;;;4956716;28;20023;-87
2022/02/15 08:10:22;;;;;;;4.68;4.20;;;7.60;99.90;;;;;;4956328;28;20066;-87
2022/02/15 08:12:55;;;;;;;6.10;3.30;;;7.70;99.90;;;;;;4956359;28;20035;-87
2022/02/15 08:15:26;;;;;;;5.63;3.15;;;7.70;99.90;;;;;;4956339;28;20087;-87
2022/02/15 08:17:52;;;;;;;5.40;4.20;;;7.80;99.90;;;;;;4941051;28;20033;-86
2022/02/15 08:20:17;;;;;;;7.53;4.38;;;7.90;99.90;;;;;;4955249;28;20051;-82
2022/02/15 08:22:43;;;;;;;6.53;3.80;;;8.00;99.90;;;;;;4956128;28;20035;-86
2022/02/15 08:25:09;;;;;;;5.28;3.80;;;8.10;99.90;;;;;;4955798;28;20106;-86
2022/02/15 08:27:37;;;;;;;6.47;4.82;;;8.20;99.90;;;;;;4956024;28;20031;-87
2022/02/15 08:30:03;;;;;;;10.65;6.00;;;8.20;99.90;;;;;;4956432;28;20024;-86
2022/02/15 08:32:29;;;;;;;7.38;5.53;;;8.20;99.90;;;;;;4954978;28;20047;-90
2022/02/15 08:34:55;;;;;;;6.15;4.68;;;8.30;99.90;;;;;;4956837;28;20016;-86
2022/02/15 08:37:21;;;;;;;5.97;4.10;;;8.30;99.90;;;;;;4955838;28;20039;-87
2022/02/15 08:39:46;;;;;;;4.50;4.00;;;8.40;99.90;;;;;;4941489;29;20042;-87
2022/02/15 08:42:12;;;;;;;5.80;4.25;;;8.40;99.90;;;;;;4955727;28;20148;-87
2022/02/15 08:44:38;;;;;;;6.28;3.92;;;8.40;99.90;;;;;;4938954;28;20078;-87
2022/02/15 08:47:06;;;;;;;6.57;3.53;;;8.70;99.90;;;;;;4952580;29;20031;-86
2022/02/15 08:49:33;;;;;;;6.57;3.88;;;8.40;99.90;;;;;;4955421;28;20031;-86
2022/02/15 08:51:58;;;;;;;4.53;3.22;;;8.40;99.90;;;;;;4940676;29;20130;-86
2022/02/15 08:54:24;;;;;;;6.05;3.75;;;8.90;99.90;;;;;;4955760;28;20118;-87
2022/02/15 08:56:50;;;;;;;5.00;4.28;;;9.00;99.90;;;;;;4955680;28;20034;-86
2022/02/15 08:59:16;;;;;;;4.90;4.20;;;9.00;99.90;;;;;;4954511;29;20514;-87
2022/02/15 09:01:42;;;;;;;7.55;3.58;;;9.20;99.90;;;;;;4955284;28;20553;-86
2022/02/15 09:04:08;;;;;;;6.63;3.72;;;9.60;99.90;;;;;;4954816;28;20086;-87
2022/02/15 09:06:35;;;;;;;6.25;3.17;;;9.90;99.90;;;;;;4955555;28;20484;-86
2022/02/15 09:09:01;;;;;;;5.45;3.35;;;10.00;99.90;;;;;;4955260;28;20361;-87
2022/02/15 09:11:26;;;;;;;4.47;3.00;;;9.80;99.90;;;;;;4954130;28;20361;-86
2022/02/15 09:13:52;;;;;;;4.03;2.72;;;9.60;99.90;;;;;;4955830;28;20480;-86
2022/02/15 09:16:18;;;;;;;2.58;2.20;;;9.90;99.90;;;;;;4944630;29;20031;-86
2022/02/15 09:18:43;;;;;;;5.13;4.32;;;9.70;99.90;;;;;;4955084;28;20062;-87
2022/02/15 09:21:10;;;;;;;5.93;2.80;;;9.90;99.90;;;;;;4954714;28;20492;-86
2022/02/15 09:23:36;;;;;;;5.25;3.38;;;10.30;99.90;;;;;;4938314;28;20031;-86
2022/02/15 09:26:02;;;;;;;6.30;4.03;;;10.80;99.90;;;;;;4954176;28;20110;-86
2022/02/15 09:28:28;;;;;;;4.85;2.28;;;10.50;99.90;;;;;;4954769;28;20055;-86
2022/02/15 09:30:54;;;;;;;4.03;2.55;;;10.30;99.90;;;;;;4955540;28;20042;-86
2022/02/15 09:33:24;;;;;;;3.65;2.17;;;9.90;99.90;;;;;;4954948;28;20038;-86
2022/02/15 09:35:50;;;;;;;3.97;3.45;;;9.90;99.90;;;;;;4955093;28;20030;-86
2022/02/15 09:38:17;;;;;;;4.88;4.05;;;9.70;99.90;;;;;;4937287;29;20031;-87
2022/02/15 09:40:43;;;;;;;4.90;3.20;;;9.60;99.90;;;;;;4954619;28;20027;-87
2022/02/15 09:43:10;;;;;;;4.40;2.58;;;9.40;99.90;;;;;;4954574;28;20043;-87
2022/02/15 09:45:37;;;;;;;3.60;2.20;;;9.10;99.90;;;;;;4953799;28;20039;-86
2022/02/15 09:48:06;;;;;;;3.33;2.28;;;8.90;99.90;;;;;;4954524;28;20409;-87
2022/02/15 09:50:33;;;;;;;4.75;2.40;;;8.90;99.90;;;;;;4955039;28;20581;-86
2022/02/15 09:53:00;;;;;;;4.05;2.80;;;9.10;99.90;;;;;;4954240;28;20118;-86
2022/02/15 09:55:26;;;;;;;8.70;5.85;;;9.50;99.90;;;;;;4954495;28;20149;-86
2022/02/15 09:57:52;;;;;;;7.13;5.95;;;9.20;99.90;;;;;;4954272;28;20110;-86
2022/02/15 10:00:21;;;;;;;5.97;3.95;;;9.20;99.90;;;;;;4954320;28;20023;-86
2022/02/15 10:02:48;;;;;;;4.07;1.75;;;9.20;99.90;;;;;;4955668;28;20453;-86
2022/02/15 10:05:18;;;;;;;2.75;2.33;;;9.20;99.90;;;;;;4955016;28;20031;-87
2022/02/15 10:07:49;;;;;;;5.35;3.00;;;9.30;99.90;;;;;;4954162;28;20042;-86
2022/02/15 10:10:33;;;;;;;3.83;1.98;;;9.30;99.90;;;;;;4954153;28;20120;-86
2022/02/15 10:13:03;;;;;;;2.78;1.92;;;9.40;99.90;;;;;;4954202;28;20039;-86
2022/02/15 10:15:34;;;;;;;6.57;2.13;;;9.60;99.90;;;;;;4955374;28;20451;-86
2022/02/15 10:18:14;;;;;;;4.20;2.40;;;9.50;99.90;;;;;;4942055;28;20063;-86
2022/02/15 10:20:45;;;;;;;3.03;2.20;;;9.50;99.90;;;;;;4957927;28;20051;-86
2022/02/15 10:23:25;;;;;;;4.53;2.08;;;9.40;99.90;;;;;;4957478;29;20066;-85
2022/02/15 10:25:52;;;;;;;5.43;3.10;;;9.20;99.90;;;;;;4959995;28;20039;-86
2022/02/15 10:28:20;;;;;;;7.85;5.53;;;9.20;99.90;;;;;;4959871;28;20031;-86
2022/02/15 10:31:03;;;;;;;7.53;3.55;;;9.20;99.90;;;;;;4958802;28;20111;-86
2022/02/15 10:33:38;;;;;;;3.33;2.30;;;9.50;99.90;;;;;;4958122;28;20042;-86
2022/02/15 10:36:10;;;;;;;4.95;1.40;;;9.50;99.90;;;;;;4957797;28;20035;-86
2022/02/15 10:38:47;;;;;;;1.48;1.05;;;9.70;99.90;;;;;;4958145;28;20100;-86
2022/02/15 10:41:19;;;;;;;2.95;1.13;;;9.20;99.90;;;;;;4956388;29;20039;-89
2022/02/15 10:43:48;;;;;;;2.40;1.38;;;9.40;99.90;;;;;;4957707;28;20024;-88
2022/02/15 10:46:17;;;;;;;4.05;1.27;;;9.40;99.90;;;;;;4958658;28;20031;-86
2022/02/15 10:48:44;;;;;;;1.98;1.17;;;9.20;99.90;;;;;;4957618;28;20399;-86
2022/02/15 10:51:10;;;;;;;3.08;1.13;;;9.30;99.90;;;;;;4957502;28;20031;-86
2022/02/15 10:53:36;;;;;;;2.45;0.90;;;9.20;99.90;;;;;;4958198;28;20039;-89
2022/02/15 10:56:02;;;;;;;4.82;1.50;;;9.70;99.90;;;;;;4957362;28;20087;-87
2022/02/15 10:58:29;;;;;;;2.65;1.55;;;9.90;99.90;;;;;;4957729;28;20050;-90
2022/02/15 11:00:58;;;;;;;2.95;1.40;;;10.70;99.90;;;;;;4957622;28;20035;-88
2022/02/15 11:03:28;;;;;;;4.43;1.45;;;12.00;99.90;;;;;;4958115;28;20102;-90
2022/02/15 11:05:54;;;;;;;4.10;1.50;;;11.60;99.90;;;;;;4942688;28;20081;-90
2022/02/15 11:08:20;;;;;;;3.25;1.52;;;11.30;99.90;;;;;;4938037;29;20511;-89
2022/02/15 11:10:59;;;;;;;3.38;1.70;;;11.20;99.90;;;;;;4942815;29;20038;-89
2022/02/15 11:13:26;;;;;;;3.50;1.88;;;11.30;99.90;;;;;;4943147;29;20050;-89
2022/02/15 11:15:55;;;;;;;4.70;1.60;;;11.10;99.90;;;;;;4943084;29;20055;-90
2022/02/15 11:18:31;;;;;;;2.13;1.50;;;10.80;99.90;;;;;;4958434;28;20023;-88
2022/02/15 11:20:58;;;;;;;3.88;1.70;;;10.80;99.90;;;;;;4942722;28;20085;-89
2022/02/15 11:23:33;;;;;;;1.70;1.50;;;10.40;99.90;;;;;;4957227;29;20447;-87
2022/02/15 11:26:08;;;;;;;3.45;1.63;;;10.20;99.90;;;;;;4957861;28;20070;-88
2022/02/15 11:28:48;;;;;;;4.85;1.70;;;10.10;99.90;;;;;;4956959;28;20070;-88
2022/02/15 11:31:27;;;;;;;2.40;1.42;;;10.10;99.90;;;;;;4957135;28;20451;-87
2022/02/15 11:33:54;;;;;;;3.38;1.60;;;9.90;99.90;;;;;;4958277;28;20138;-88
2022/02/15 11:36:23;;;;;;;3.33;1.60;;;9.70;99.90;;;;;;4957354;28;20054;-88
2022/02/15 11:39:10;;;;;;;4.35;2.78;;;9.60;99.90;;;;;;4957007;28;20094;-89
2022/02/15 11:41:46;;;;;;;2.95;2.00;;;9.70;99.90;;;;;;4954590;28;20106;-88
2022/02/15 11:44:11;;;;;;;4.13;1.88;;;9.80;99.90;;;;;;4955138;29;20035;-88
2022/02/15 11:46:43;;;;;;;3.10;1.40;;;10.00;99.90;;;;;;4956849;28;20448;-88
2022/02/15 11:49:18;;;;;;;4.05;1.88;;;9.80;99.90;;;;;;4956874;28;20039;-87
2022/02/15 11:51:46;;;;;;;5.50;1.65;;;9.70;99.90;;;;;;4956667;28;20054;-87
2022/02/15 11:54:21;;;;;;;2.83;1.30;;;9.60;99.90;;;;;;4956688;28;20035;-88
2022/02/15 11:56:52;;;;;;;1.90;1.20;;;9.60;99.90;;;;;;4956444;28;20487;-88
2022/02/15 11:59:23;;;;;;;3.33;1.70;;;9.60;99.90;;;;;;4956229;29;20011;-92
2022/02/15 12:02:01;;;;;;;2.00;1.45;;;9.50;99.90;;;;;;4956706;28;20488;-89
2022/02/15 12:04:27;;;;;;;3.10;1.48;;;9.30;99.90;;;;;;4956832;28;20045;-90
2022/02/15 12:06:54;;;;;;;1.75;1.23;;;9.40;99.90;;;;;;4942550;29;20086;-89
2022/02/15 12:09:31;;;;;;;3.45;1.55;;;9.40;99.90;;;;;;4956355;28;20094;-89
2022/02/15 12:11:58;;;;;;;3.78;1.42;;;9.50;99.90;;;;;;4941540;28;20050;-86
2022/02/15 12:14:25;;;;;;;2.72;1.42;;;9.90;99.90;;;;;;4955449;29;20030;-83
2022/02/15 12:16:52;;;;;;;4.30;1.30;;;9.90;99.90;;;;;;4958177;28;20046;-87
2022/02/15 12:19:31;;;;;;;2.92;1.42;;;9.50;99.90;;;;;;4958303;28;20035;-87
2022/02/15 12:22:02;;;;;;;1.92;1.20;;;9.50;99.90;;;;;;4957415;28;20039;-87
2022/02/15 12:24:30;;;;;;;5.85;1.33;;;9.50;99.90;;;;;;4955620;28;20042;-86
2022/02/15 12:26:58;;;;;;;4.47;1.45;;;9.20;99.90;;;;;;4956005;28;20033;-86
2022/02/15 12:29:24;;;;;;;3.88;1.45;;;9.40;99.90;;;;;;4955757;29;20029;-86
2022/02/15 12:31:57;;;;;;;3.47;1.10;;;9.10;99.90;;;;;;4956972;28;20561;-86
2022/02/15 12:34:23;;;;;;;3.75;1.10;;;9.30;99.90;;;;;;4956412;28;20121;-86
2022/02/15 12:36:49;;;;;;;3.17;1.10;;;9.20;99.90;;;;;;4955759;28;20047;-85
2022/02/15 12:39:15;;;;;;;7.93;1.55;;;9.20;99.90;;;;;;4954947;28;21627;-86
2022/02/15 12:41:43;;;;;;;3.85;1.40;;;8.90;99.90;;;;;;4955761;28;20110;-85
2022/02/15 12:44:10;;;;;;;2.53;1.00;;;9.20;99.90;;;;;;4955483;29;20031;-85
2022/02/15 12:46:36;;;;;;;3.33;1.08;;;9.30;99.90;;;;;;4955869;28;20035;-85
2022/02/15 12:49:03;;;;;;;2.55;1.10;;;9.10;99.90;;;;;;4955632;28;20039;-86
2022/02/15 12:51:34;;;;;;;2.10;0.70;;;9.70;99.90;;;;;;4955710;28;20097;-85
2022/02/15 12:54:00;;;;;;;1.27;0.80;;;9.50;99.90;;;;;;4955807;28;20046;-85
2022/02/15 12:56:28;;;;;;;1.05;0.85;;;9.70;99.90;;;;;;4954785;28;20019;-85
2022/02/15 12:58:57;;;;;;;1.45;0.80;;;10.20;99.90;;;;;;4956035;28;20038;-86